Flight Track Log - Related Links

Times and Time Zones

All times are in EST time to prevent confusion due to time zone crossing. See the AFL1861 flight status page for this flight to view local times or setup timezone preferences in your user account.


Time Position Orientation Groundspeed Altitude Reporting Facility
EST Latitude Longitude Course Direction KTS MPH feet Rate Location/Type
Fri 08:22:00 AM 44.3601 43.4773 344° North  Level Estimated
Fri 08:23:00 AM 44.5081 43.4170 344° North  Level Estimated
Fri 08:24:00 AM 44.6561 43.3564 344° North  Level Estimated
Fri 08:25:00 AM 44.8041 43.2955 344° North  Level Estimated
Fri 08:26:00 AM 44.9520 43.2343 344° North  Level Estimated
Fri 08:27:00 AM 45.0999 43.1727 344° North  Level Estimated
Fri 08:28:00 AM 45.2478 43.1109 344° North  Level Estimated
Fri 08:29:00 AM 45.3956 43.0487 344° North  Level Estimated
Fri 08:30:00 AM 45.5434 42.9862 344° North  Level Estimated
Fri 08:31:00 AM 45.6911 42.9233 343° North  Level Estimated
Fri 08:32:00 AM 45.8389 42.8602 343° North  Level Estimated
Fri 08:33:00 AM 45.9865 42.7966 343° North  Level Estimated
Fri 08:34:00 AM 46.1342 42.7328 343° North  Level Estimated
Fri 08:35:00 AM 46.2818 42.6686 343° North  Level Estimated
Fri 08:36:00 AM 46.4294 42.6041 343° North  Level Estimated
Fri 08:37:00 AM 46.5769 42.5392 343° North  Level Estimated
Fri 08:38:00 AM 46.7244 42.4739 343° North  Level Estimated
Fri 08:39:00 AM 46.8719 42.4083 343° North  Level Estimated
Fri 08:40:00 AM 47.0193 42.3424 343° North  Level Estimated
Fri 08:41:00 AM 47.1667 42.2761 343° North  Level Estimated
Fri 08:42:00 AM 47.3141 42.2094 343° North  Level Estimated
Fri 08:43:00 AM 47.4614 42.1423 343° North  Level Estimated
Fri 08:44:00 AM 47.6087 42.0748 343° North  Level Estimated
Fri 08:45:00 AM 47.7559 42.0070 343° North  Level Estimated
Fri 08:46:00 AM 47.9031 41.9388 343° North  Level Estimated
Fri 08:47:00 AM 48.0503 41.8702 343° North  Level Estimated
Fri 08:48:00 AM 48.1974 41.8012 343° North  Level Estimated
Fri 08:49:00 AM 48.3445 41.7318 343° North  Level Estimated
Fri 08:50:00 AM 48.4915 41.6620 343° North  Level Estimated
Fri 08:51:00 AM 48.6385 41.5918 342° North  Level Estimated
Fri 08:52:00 AM 48.7855 41.5212 342° North  Level Estimated
Fri 08:53:00 AM 48.9324 41.4502 342° North  Level Estimated
Fri 08:54:00 AM 49.0792 41.3788 342° North  Level Estimated
Fri 08:55:00 AM 49.2260 41.3069 342° North  Level Estimated
Fri 08:56:00 AM 49.3728 41.2346 342° North  Level Estimated
Fri 08:57:00 AM 49.5195 41.1619 342° North  Level Estimated
Fri 08:58:00 AM 49.6662 41.0887 342° North  Level Estimated
Fri 08:59:00 AM 49.8128 41.0151 342° North  Level Estimated
Fri 09:00:00 AM 49.9594 40.9411 342° North  Level Estimated
Fri 09:01:00 AM 50.1060 40.8666 342° North  Level Estimated
Fri 09:02:00 AM 50.2524 40.7916 342° North  Level Estimated
Fri 09:03:00 AM 50.3989 40.7162 342° North  Level Estimated
Fri 09:04:00 AM 50.5453 40.6403 342° North  Level Estimated
Fri 09:05:00 AM 50.6916 40.5639 342° North  Level Estimated
Fri 09:06:00 AM 50.8379 40.4871 342° North  Level Estimated
Fri 09:07:00 AM 50.9841 40.4098 342° North  Level Estimated
Fri 09:08:00 AM 51.1303 40.3319 342° North  Level Estimated
Fri 09:09:00 AM 51.2765 40.2536 341° North  Level Estimated
Fri 09:10:00 AM 51.4226 40.1748 341° North  Level Estimated
Fri 09:11:00 AM 51.5686 40.0955 341° North  Level Estimated
Fri 09:12:00 AM 51.7146 40.0157 341° North  Level Estimated
Fri 09:13:00 AM 51.8605 39.9353 341° North  Level Estimated
Fri 09:14:00 AM 52.0064 39.8545 341° North  Level Estimated
Fri 09:15:00 AM 52.1522 39.7731 341° North  Level Estimated
Fri 09:16:00 AM 52.2979 39.6912 341° North  Level Estimated
Fri 09:17:00 AM 52.4436 39.6087 341° North  Level Estimated
Fri 09:18:00 AM 52.5893 39.5257 341° North  Level Estimated
Fri 09:19:00 AM 52.7349 39.4421 341° North  Level Estimated
Fri 09:20:00 AM 52.8804 39.3580 341° North  Level Estimated
Fri 09:21:00 AM 53.0258 39.2733 341° North  Level Estimated
Fri 09:22:00 AM 53.1712 39.1880 341° North  Level Estimated
Fri 09:23:00 AM 53.3166 39.1022 341° North  Level Estimated
Fri 09:24:00 AM 53.4619 39.0157 340° North  Level Estimated
Fri 09:24:19 AM 51.5623 39.8074 340° North 449 517 34,000  Level FlightAware ADS-B
Fri 09:24:59 AM 51.6187 39.7489 327° Northwest 449 517 34,000  Level FlightAware ADS-B
Fri 09:25:33 AM 51.6799 39.6851 327° Northwest 449 517 34,000  Level FlightAware ADS-B
Fri 09:26:20 AM 51.7807 39.5798 327° Northwest 450 518 34,000  Level FlightAware ADS-B
Fri 09:26:58 AM 51.8503 39.5068 327° Northwest 450 518 34,000  Level FlightAware ADS-B
Fri 09:27:39 AM 51.9205 39.4326 327° Northwest 450 518 34,000  Level FlightAware ADS-B
Fri 09:28:19 AM 51.9866 39.3628 327° Northwest 449 517 34,000  Level FlightAware ADS-B
Fri 09:28:58 AM 52.0554 39.2898 327° Northwest 452 520 34,000  Level FlightAware ADS-B
Fri 09:29:40 AM 52.1273 39.2131 327° Northwest 453 521 34,000  Level FlightAware ADS-B
Fri 09:30:20 AM 52.1961 39.1398 327° Northwest 453 521 34,000  Level FlightAware ADS-B
Fri 09:30:57 AM 52.2627 39.0683 327° Northwest 453 521 34,000  Level FlightAware ADS-B
Fri 09:31:38 AM 52.3313 38.9982 328° Northwest 458 527 34,000  Level FlightAware ADS-B
Fri 09:32:20 AM 52.4203 38.9316 335° Northwest 464 534 34,000  Level FlightAware ADS-B
Fri 09:32:59 AM 52.4955 38.8811 338° Northwest 463 533 34,000  Level FlightAware ADS-B
Fri 09:33:40 AM 52.5735 38.8267 337° Northwest 461 531 34,000  Level FlightAware ADS-B
Fri 09:34:19 AM 52.6555 38.7690 337° Northwest 459 528 34,000  Level FlightAware ADS-B
Fri 09:35:00 AM 52.7321 38.7149 337° Northwest 458 527 34,000  Level FlightAware ADS-B
Fri 09:35:39 AM 52.8094 38.6604 337° Northwest 457 526 34,000  Level FlightAware ADS-B
Fri 09:38:00 AM 53.1631 38.5306 348° North  Level Estimated
Fri 09:39:00 AM 53.3136 38.4747 347° North  Level Estimated
Fri 09:40:00 AM 53.4640 38.4184 347° North  Level Estimated
Fri 09:41:00 AM 53.6144 38.3616 347° North  Level Estimated
Fri 09:42:00 AM 53.7649 38.3045 347° North  Level Estimated
Fri 09:43:00 AM 53.9152 38.2470 347° North  Level Estimated
Fri 09:44:00 AM 54.0656 38.1891 347° North  Level Estimated
Fri 09:45:00 AM 54.2159 38.1307 347° North  Level Estimated
Fri 09:46:00 AM 54.3662 38.0719 347° North  Level Estimated
Fri 09:47:00 AM 54.5164 38.0127 347° North  Level Estimated
Fri 09:48:00 AM 54.6667 37.9530 347° North  Level Estimated
Fri 09:49:00 AM 54.8169 37.8929 347° North  Level Estimated
Fri 09:50:00 AM 54.9670 37.8324 347° North  Level Estimated
Fri 09:51:00 AM 55.1172 37.7714 347° North  Level Estimated
Fri 09:52:00 AM 55.2673 37.7099 347° North  Level Estimated
Fri 09:53:00 AM 55.4174 37.6480 347° North  Level Estimated
Fri 09:54:00 AM 55.5674 37.5856 347° North  Level Estimated
Fri 09:55:00 AM 55.7174 37.5227 347° North  Level Estimated
Fri 09:56:00 AM 55.8674 37.4594 347° North  Level Estimated
Fri 09:57:00 AM 55.9726 37.4146 347° North  Level Estimated
Fri 09:58:00 AM 55.9726 37.4146 344° North  Level Estimated
Fri 09:59:00 AM 55.9726 37.4146 344° North  Level Estimated
Fri 10:00:00 AM 55.9726 37.4146 344° North  Level Estimated
Fri 10:01:00 AM 55.9726 37.4146 344° North  Level Estimated
Fri 10:02:00 AM 55.9726 37.4146 344° North  Level Estimated
Fri 10:03:00 AM 55.9726 37.4146 344° North  Level Estimated
Fri 10:04:00 AM 55.9726 37.4146 344° North  Level Estimated
Fri 10:05:00 AM 55.9726 37.4146 344° North  Level Estimated
Fri 10:06:00 AM 55.9726 37.4146 344° North  Level Estimated
Fri 10:07:00 AM 55.9726 37.4146 344° North  Level Estimated
Fri 10:08:00 AM 55.9726 37.4146 344° North  Level Estimated
Fri 10:09:00 AM 55.9726 37.4146 344° North  Level Estimated
Fri 10:10:00 AM 55.9726 37.4146 344° North  Level Estimated
Fri 10:11:00 AM 55.9726 37.4146 344° North  Level Estimated
Fri 10:12:00 AM 55.9726 37.4146 344° North  Level Estimated
Fri 10:13:00 AM 55.9726 37.4146 344° North  Level Estimated
Fri 10:14:00 AM 55.9726 37.4146 344° North  Level Estimated
Fri 10:15:00 AM 55.9726 37.4146 344° North  Level Estimated

Login

Don't have an account? Register now (free) for customized features, flight alerts, and more!